createdAt,value
2019-05-10T00:03:57.635Z,4.35
2019-05-10T00:09:04.634Z,2.60
2019-05-10T00:14:34.608Z,2.35
2019-05-10T00:19:41.432Z,2.98
2019-05-10T00:25:02.035Z,2.90
2019-05-10T00:29:56.434Z,4.22
2019-05-10T00:35:03.069Z,3.85
2019-05-10T00:40:09.745Z,3.25
2019-05-10T00:45:16.486Z,2.67
2019-05-10T00:50:23.199Z,3.90
2019-05-10T00:55:29.799Z,3.22
2019-05-10T01:00:36.830Z,3.77
2019-05-10T01:05:43.355Z,3.47
2019-05-10T01:10:49.985Z,3.35
2019-05-10T01:15:58.461Z,4.05
2019-05-10T01:21:05.191Z,3.25
2019-05-10T01:26:11.792Z,7.17
2019-05-10T01:31:18.727Z,4.75
2019-05-10T01:36:26.141Z,4.75
2019-05-10T01:41:32.670Z,4.55
2019-05-10T01:46:39.212Z,3.80
2019-05-10T01:51:45.747Z,5.35
2019-05-10T01:56:52.210Z,6.17
2019-05-10T02:01:58.878Z,4.20
2019-05-10T02:07:05.575Z,4.33
2019-05-10T02:12:12.203Z,3.67
2019-05-10T02:17:18.835Z,4.17
2019-05-10T02:22:25.413Z,3.35
2019-05-10T02:27:31.868Z,5.10
2019-05-10T02:32:38.449Z,5.37
2019-05-10T02:37:45.605Z,3.17
2019-05-10T02:42:52.274Z,3.55
2019-05-10T02:47:58.687Z,6.67
2019-05-10T02:53:05.295Z,3.60
2019-05-10T02:58:15.098Z,3.08
2019-05-10T03:03:24.998Z,3.33
2019-05-10T03:08:47.856Z,4.45
2019-05-10T03:13:56.797Z,2.70
2019-05-10T03:19:05.021Z,3.15
2019-05-10T03:24:11.570Z,2.50
2019-05-10T03:29:18.262Z,7.08
2019-05-10T03:34:25.051Z,4.05
2019-05-10T03:39:31.731Z,3.65
2019-05-10T03:44:38.273Z,4.20
2019-05-10T03:49:44.914Z,4.67
2019-05-10T03:54:51.402Z,5.12
2019-05-10T04:00:00.887Z,5.03
2019-05-10T04:05:08.191Z,5.55
2019-05-10T04:10:15.141Z,7.20
2019-05-10T04:15:22.039Z,4.62
2019-05-10T04:20:28.667Z,5.70
2019-05-10T04:25:35.051Z,5.08
2019-05-10T04:30:41.637Z,6.33
2019-05-10T04:35:48.173Z,6.17
2019-05-10T04:40:54.739Z,6.35
2019-05-10T04:46:01.212Z,5.40
2019-05-10T04:51:07.981Z,5.95
2019-05-10T04:56:14.570Z,6.47
2019-05-10T05:01:21.156Z,5.03
2019-05-10T05:06:27.841Z,5.87
2019-05-10T05:11:34.357Z,6.20
2019-05-10T05:16:41.007Z,4.85
2019-05-10T05:21:47.464Z,5.65
2019-05-10T05:26:54.084Z,4.87
2019-05-10T05:32:03.435Z,6.33
2019-05-10T05:37:09.256Z,4.65
2019-05-10T05:42:15.927Z,6.42
2019-05-10T05:47:22.394Z,5.37
2019-05-10T05:52:28.870Z,8.25
2019-05-10T05:57:35.407Z,6.28
2019-05-10T06:02:44.885Z,7.28
2019-05-10T06:07:52.287Z,6.67
2019-05-10T06:12:58.478Z,6.78
2019-05-10T06:18:10.063Z,4.90
2019-05-10T06:23:13.378Z,5.33
2019-05-10T06:28:26.993Z,4.53
2019-05-10T06:33:28.786Z,4.05
2019-05-10T06:38:35.381Z,5.03
2019-05-10T06:43:45.731Z,5.25
2019-05-10T06:48:50.272Z,5.45
2019-05-10T06:53:56.901Z,4.55
2019-05-10T06:59:12.954Z,3.52
2019-05-10T07:04:11.842Z,4.03
2019-05-10T07:09:18.442Z,4.03
2019-05-10T07:14:27.101Z,4.95
2019-05-10T07:19:34.796Z,3.35
2019-05-10T07:24:41.485Z,3.87
2019-05-10T07:29:48.128Z,2.50
2019-05-10T07:34:58.867Z,2.50
2019-05-10T07:40:03.697Z,3.25
2019-05-10T07:45:10.825Z,3.25
2019-05-10T07:50:17.660Z,2.70
2019-05-10T07:55:28.499Z,2.25
2019-05-10T08:00:38.000Z,2.35
2019-05-10T08:05:40.939Z,2.42
2019-05-10T08:10:48.800Z,4.20
2019-05-10T08:15:55.646Z,2.35
2019-05-10T08:21:17.732Z,3.12
2019-05-10T08:26:20.338Z,2.83
2019-05-10T08:31:22.177Z,1.42
2019-05-10T08:36:28.320Z,3.77
2019-05-10T08:41:34.973Z,1.85
2019-05-10T08:46:44.306Z,2.72
2019-05-10T08:51:52.251Z,3.92
2019-05-10T08:57:01.106Z,0.98
2019-05-10T09:02:07.444Z,6.05
2019-05-10T09:07:14.028Z,2.87
2019-05-10T09:12:22.945Z,1.72
2019-05-10T09:17:29.175Z,3.12
2019-05-10T09:22:38.635Z,3.77
2019-05-10T09:27:45.051Z,2.85
2019-05-10T09:32:52.094Z,1.12
2019-05-10T09:37:58.859Z,1.77
2019-05-10T09:43:09.638Z,2.10
2019-05-10T09:48:13.905Z,1.10
2019-05-10T09:53:25.733Z,3.30
2019-05-10T09:58:28.935Z,4.12
2019-05-10T10:03:43.056Z,1.40
2019-05-10T10:08:49.293Z,1.67
2019-05-10T10:13:58.967Z,4.95
2019-05-10T10:19:00.545Z,1.40
2019-05-10T10:24:15.563Z,2.25
2019-05-10T10:29:17.290Z,2.67
2019-05-10T10:34:24.166Z,1.55
2019-05-10T10:39:30.868Z,1.90
2019-05-10T10:44:37.582Z,1.37
2019-05-10T10:49:44.157Z,1.85
2019-05-10T10:54:50.807Z,1.17
2019-05-10T10:59:57.570Z,1.37
2019-05-10T11:05:05.452Z,0.82
2019-05-10T11:10:19.191Z,3.75
2019-05-10T11:15:23.167Z,2.42
2019-05-10T11:20:31.742Z,1.65
2019-05-10T11:25:44.316Z,4.28
2019-05-10T11:30:46.402Z,4.00
2019-05-10T11:35:57.547Z,2.45
2019-05-10T11:41:02.161Z,1.95
2019-05-10T11:46:11.741Z,4.67
2019-05-10T11:51:20.951Z,4.45
2019-05-10T11:56:27.909Z,1.35
2019-05-10T12:01:34.616Z,5.25
2019-05-10T12:06:50.027Z,1.47
2019-05-10T12:11:56.478Z,5.80
2019-05-10T12:16:57.771Z,2.87
2019-05-10T12:22:04.916Z,3.15
2019-05-10T12:27:22.437Z,3.00
2019-05-10T12:32:21.311Z,1.90
2019-05-10T12:37:30.702Z,2.50
2019-05-10T12:42:36.424Z,1.77
2019-05-10T12:47:43.064Z,3.10
2019-05-10T12:53:02.694Z,1.40
2019-05-10T12:57:57.842Z,3.77
2019-05-10T13:03:12.658Z,1.05
2019-05-10T13:08:12.822Z,3.15
2019-05-10T13:13:23.663Z,1.35
2019-05-10T13:18:49.171Z,2.80
2019-05-10T13:23:36.084Z,1.55
2019-05-10T13:28:42.644Z,1.65
2019-05-10T13:33:49.271Z,4.10
2019-05-10T13:38:57.073Z,1.90
2019-05-10T13:44:05.018Z,1.40
2019-05-10T13:49:12.389Z,1.45
2019-05-10T13:54:18.957Z,5.55
2019-05-10T13:59:25.531Z,2.33
2019-05-10T14:04:34.120Z,2.30
2019-05-10T14:09:42.156Z,5.40
2019-05-10T14:14:48.775Z,1.60
2019-05-10T14:19:55.465Z,5.03
2019-05-10T14:25:02.141Z,2.85
2019-05-10T14:30:15.848Z,1.90
2019-05-10T14:35:22.404Z,2.05
2019-05-10T14:40:30.824Z,1.82
2019-05-10T14:45:37.014Z,3.45
2019-05-10T14:50:46.463Z,1.65
2019-05-10T14:55:51.938Z,1.30
2019-05-10T15:00:58.627Z,3.60
2019-05-10T15:06:06.340Z,3.58
2019-05-10T15:11:12.907Z,2.87
2019-05-10T15:16:27.630Z,2.10
2019-05-10T15:21:28.833Z,3.25
2019-05-10T15:26:37.266Z,2.25
2019-05-10T15:31:43.781Z,2.15
2019-05-10T15:36:50.361Z,1.52
2019-05-10T15:41:59.136Z,0.82
2019-05-10T15:47:05.444Z,1.82
2019-05-10T15:52:17.591Z,2.12
2019-05-10T15:57:21.870Z,2.67
2019-05-10T16:02:28.892Z,1.65
2019-05-10T16:07:36.302Z,2.12
2019-05-10T16:12:44.510Z,2.10
2019-05-10T16:17:53.743Z,4.78
2019-05-10T16:23:02.749Z,3.37
2019-05-10T16:28:08.296Z,2.27
2019-05-10T16:33:15.949Z,2.12
2019-05-10T16:38:23.464Z,1.45
2019-05-10T16:43:30.037Z,2.47
2019-05-10T16:48:36.679Z,2.15
2019-05-10T16:53:44.281Z,3.33
2019-05-10T16:58:53.552Z,2.75
2019-05-10T17:04:01.750Z,2.95
2019-05-10T17:09:16.036Z,3.37
2019-05-10T17:14:17.911Z,4.33
2019-05-10T17:19:28.077Z,4.00
2019-05-10T17:24:33.579Z,4.53
2019-05-10T17:29:44.598Z,2.52
2019-05-10T17:34:49.605Z,3.33
2019-05-10T17:39:57.251Z,6.00
2019-05-10T17:45:05.116Z,2.90
2019-05-10T17:50:11.995Z,5.10
2019-05-10T17:55:18.689Z,4.08
2019-05-10T18:00:25.462Z,7.17
2019-05-10T18:05:32.065Z,7.33
2019-05-10T18:10:38.649Z,7.08
2019-05-10T18:15:45.307Z,5.42
2019-05-10T18:20:51.902Z,6.47
2019-05-10T18:26:00.223Z,8.90
2019-05-10T18:31:06.851Z,7.22
2019-05-10T18:36:13.577Z,7.67
2019-05-10T18:41:20.234Z,4.50
2019-05-10T18:46:26.773Z,5.87
2019-05-10T18:51:34.623Z,5.17
2019-05-10T18:56:41.446Z,5.20
2019-05-10T19:01:48.232Z,8.55
2019-05-10T19:07:09.363Z,8.43
2019-05-10T19:12:03.316Z,7.33
2019-05-10T19:17:11.117Z,4.97
2019-05-10T19:22:17.805Z,4.85
2019-05-10T19:27:25.255Z,18.45
2019-05-10T19:32:32.043Z,4.92
2019-05-10T19:37:38.692Z,5.08
2019-05-10T19:42:48.973Z,5.42
2019-05-10T19:47:55.605Z,5.15
2019-05-10T19:53:03.731Z,4.53
2019-05-10T19:58:10.501Z,6.35
2019-05-10T20:03:17.183Z,3.65
2019-05-10T20:08:23.793Z,4.40
2019-05-10T20:13:30.514Z,4.65
2019-05-10T20:18:37.048Z,3.75
2019-05-10T20:23:43.652Z,4.95
2019-05-10T20:28:50.121Z,6.87
2019-05-10T20:33:56.746Z,4.75
2019-05-10T20:39:03.221Z,4.10
2019-05-10T20:44:09.761Z,6.40
2019-05-10T20:49:16.448Z,5.95
2019-05-10T20:54:23.611Z,7.47
2019-05-10T20:59:30.095Z,6.85
2019-05-10T21:04:36.675Z,7.53
2019-05-10T21:09:43.207Z,7.30
2019-05-10T21:14:49.743Z,6.45
2019-05-10T21:19:56.401Z,5.85
2019-05-10T21:25:02.936Z,6.35
2019-05-10T21:30:12.070Z,6.28
2019-05-10T21:35:18.847Z,7.65
2019-05-10T21:40:25.422Z,8.05
2019-05-10T21:45:32.118Z,8.85
2019-05-10T21:50:38.575Z,8.50
2019-05-10T21:55:45.120Z,10.82
2019-05-10T22:00:53.520Z,6.62
2019-05-10T22:06:01.768Z,7.40
2019-05-10T22:11:08.419Z,6.30
2019-05-10T22:16:15.014Z,7.45
2019-05-10T22:21:21.668Z,5.85
2019-05-10T22:26:28.272Z,7.17
2019-05-10T22:31:34.743Z,9.55
2019-05-10T22:36:41.449Z,7.53
2019-05-10T22:41:48.121Z,10.45
2019-05-10T22:46:54.728Z,11.60
2019-05-10T22:52:01.259Z,11.00
2019-05-10T22:57:07.874Z,11.78
2019-05-10T23:02:14.339Z,10.15
2019-05-10T23:07:20.851Z,8.60
2019-05-10T23:12:27.323Z,6.92
2019-05-10T23:17:33.854Z,8.55
2019-05-10T23:22:40.404Z,7.35
2019-05-10T23:27:46.944Z,7.47
2019-05-10T23:32:53.574Z,7.95
2019-05-10T23:38:00.103Z,8.13
2019-05-10T23:43:06.706Z,7.12
2019-05-10T23:48:13.338Z,6.72
2019-05-10T23:53:19.864Z,8.15
2019-05-10T23:58:26.500Z,6.33
